Time;durP1;ratioP1;P1;durP2;ratioP2;P2;SDS_P1;SDS_P2;PMS_P1;PMS_P2;Temp;Humidity;BMP_temperature;BMP_pressure;BME280_temperature;BME280_humidity;BME280_pressure;Samples;Min_cycle;Max_cycle;Signal;HPM_P1;HPM_P2
2023/04/13 00:01:39;;;;;;;;;;;10.90;99.90;;;;;;5030795;28;19905;-77
2023/04/13 00:04:05;;;;;;;;;;;11.00;99.90;;;;;;5031747;28;19935;-77
2023/04/13 00:06:32;;;;;;;;;;;11.00;99.90;;;;;;5033252;28;19920;-77
2023/04/13 00:09:01;;;;;;;;;;;11.00;99.90;;;;;;5020358;28;19911;-77
2023/04/13 00:11:37;;;;;;;;;;;11.00;99.90;;;;;;5032544;28;19913;-77
2023/04/13 00:14:05;;;;;;;;;;;11.00;99.90;;;;;;5011191;28;19913;-77
2023/04/13 00:16:32;;;;;;;;;;;11.00;99.90;;;;;;5024358;28;19958;-77
2023/04/13 00:19:11;;;;;;;;;;;11.00;99.90;;;;;;5032933;28;19905;-76
2023/04/13 00:21:40;;;;;;;;;;;11.00;99.90;;;;;;5012896;28;19912;-76
2023/04/13 00:24:06;;;;;;;;;;;11.00;99.90;;;;;;5017666;28;20010;-78
2023/04/13 00:26:41;;;;;;;;;;;11.00;99.90;;;;;;5013126;28;19946;-78
2023/04/13 00:29:08;;;;;;;;;;;10.90;99.90;;;;;;5033795;28;19905;-77
2023/04/13 00:31:38;;;;;;;;;;;11.00;99.90;;;;;;5016056;28;19919;-78
2023/04/13 00:34:15;;;;;;;;;;;11.00;99.90;;;;;;5031842;28;19905;-77
2023/04/13 00:36:44;;;;;;;;;;;11.00;99.90;;;;;;5030552;28;19926;-77
2023/04/13 00:39:10;;;;;;;;;;;11.00;99.90;;;;;;5032187;28;19904;-77
2023/04/13 00:41:46;;;;;;;;;;;11.00;99.90;;;;;;5034953;28;19995;-77
2023/04/13 00:44:14;;;;;;;;;;;11.10;99.90;;;;;;5036767;28;19924;-78
2023/04/13 00:46:41;;;;;;;;;;;11.10;99.90;;;;;;5013989;28;19947;-77
2023/04/13 00:49:16;;;;;;;;;;;11.10;99.90;;;;;;5035632;28;20419;-77
2023/04/13 00:51:43;;;;;;;;;;;11.10;99.90;;;;;;5022988;28;19967;-77
2023/04/13 00:54:18;;;;;;;;;;;11.10;99.90;;;;;;5030559;28;20289;-77
2023/04/13 00:56:47;;;;;;;;;;;11.00;99.90;;;;;;5012686;28;19905;-77
2023/04/13 00:59:16;;;;;;;;;;;11.10;99.90;;;;;;5031620;28;20328;-77
2023/04/13 01:01:45;;;;;;;;;;;11.10;99.90;;;;;;5030552;28;19912;-77
2023/04/13 01:04:17;;;;;;;;;;;11.00;99.90;;;;;;5015358;28;20311;-77
2023/04/13 01:06:49;;;;;;;;;;;11.00;99.90;;;;;;5017289;28;19909;-77
2023/04/13 01:09:19;;;;;;;;;;;11.00;99.90;;;;;;5017993;28;19905;-77
2023/04/13 01:12:04;;;;;;;;;;;10.90;99.90;;;;;;5015544;28;19958;-78
2023/04/13 01:14:40;;;;;;;;;;;10.90;99.90;;;;;;5036073;28;19940;-77
2023/04/13 01:17:11;;;;;;;;;;;10.90;99.90;;;;;;5031492;28;20678;-77
2023/04/13 01:20:05;;;;;;;;;;;10.90;99.90;;;;;;5017918;28;19999;-77
2023/04/13 01:22:34;;;;;;;;;;;11.00;99.90;;;;;;5016421;28;19924;-77
2023/04/13 01:25:18;;;;;;;;;;;11.00;99.90;;;;;;5038131;28;19909;-77
2023/04/13 01:27:45;;;;;;;;;;;10.90;99.90;;;;;;5029716;28;19904;-77
2023/04/13 01:30:12;;;;;;;;;;;10.80;99.90;;;;;;5013826;28;19917;-77
2023/04/13 01:32:39;;;;;;;;;;;10.80;99.90;;;;;;5009577;28;19916;-77
2023/04/13 01:35:05;;;;;;;;;;;10.80;99.90;;;;;;5017266;28;19963;-76
2023/04/13 01:37:32;;;;;;;;;;;10.80;99.90;;;;;;5030941;28;19912;-76
2023/04/13 01:40:10;;;;;;;;;;;11.00;99.90;;;;;;5040871;28;19905;-76
2023/04/13 01:42:41;;;;;;;;;;;11.10;99.90;;;;;;5028180;28;19909;-77
2023/04/13 01:45:27;;;;;;;;;;;11.10;99.90;;;;;;5030067;28;19909;-76
2023/04/13 01:50:47;;;;;;;;;;;11.10;99.90;;;;;;5031583;28;19923;-76
2023/04/13 01:53:18;;;;;;;;;;;11.00;99.90;;;;;;5030862;28;20369;-76
2023/04/13 01:55:49;;;;;;;;;;;11.00;99.90;;;;;;5031147;28;19915;-75
2023/04/13 01:58:18;;;;;;;;;;;11.00;99.90;;;;;;5017556;28;19912;-76
2023/04/13 02:00:45;;;;;;;;;;;10.90;99.90;;;;;;5021431;28;19988;-76
2023/04/13 02:03:11;;;;;;;;;;;10.90;99.90;;;;;;5020602;28;19908;-75
2023/04/13 02:05:39;;;;;;;;;;;10.90;99.90;;;;;;5034641;28;19905;-76
2023/04/13 02:08:07;;;;;;;;;;;10.90;99.90;;;;;;5032948;28;19909;-76
2023/04/13 02:10:41;;;;;;;;;;;10.80;99.90;;;;;;5037369;28;19913;-75
2023/04/13 02:13:18;;;;;;;;;;;10.80;99.90;;;;;;5018692;28;19905;-76
2023/04/13 02:15:46;;;;;;;;;;;10.70;99.90;;;;;;5018728;28;20625;-76
2023/04/13 02:18:12;;;;;;;;;;;10.70;99.90;;;;;;5035403;28;19913;-76
2023/04/13 02:20:44;;;;;;;;;;;10.70;99.90;;;;;;5019814;28;19999;-75
2023/04/13 02:23:13;;;;;;;;;;;10.70;99.90;;;;;;5030193;28;19909;-75
2023/04/13 02:25:43;;;;;;;;;;;10.70;99.90;;;;;;5039283;28;19911;-77
2023/04/13 02:28:16;;;;;;;;;;;10.70;99.90;;;;;;5016982;28;19952;-77
2023/04/13 02:30:42;;;;;;;;;;;10.70;99.90;;;;;;5030525;28;19947;-77
2023/04/13 02:33:08;;;;;;;;;;;10.70;99.90;;;;;;5029007;28;20370;-76
2023/04/13 02:35:37;;;;;;;;;;;10.70;99.90;;;;;;5034841;28;20421;-76
2023/04/13 02:38:06;;;;;;;;;;;10.70;99.90;;;;;;5036286;28;19912;-76
2023/04/13 02:40:32;;;;;;;;;;;10.60;99.90;;;;;;5037025;28;19996;-76
2023/04/13 02:42:58;;;;;;;;;;;10.70;99.90;;;;;;5032648;28;19915;-77
2023/04/13 02:45:25;;;;;;;;;;;10.60;99.90;;;;;;5036544;28;19909;-76
2023/04/13 02:47:52;;;;;;;;;;;10.60;99.90;;;;;;5020527;28;19916;-77
2023/04/13 02:50:17;;;;;;;;;;;10.60;99.90;;;;;;5038797;28;19913;-77
2023/04/13 02:52:52;;;;;;;;;;;10.50;99.90;;;;;;5036554;28;19909;-77
2023/04/13 02:55:18;;;;;;;;;;;10.50;99.90;;;;;;5031243;28;19913;-76
2023/04/13 02:57:44;;;;;;;;;;;10.50;99.90;;;;;;5036274;28;20289;-77
2023/04/13 03:00:10;;;;;;;;;;;10.50;99.90;;;;;;5018519;28;19931;-77
2023/04/13 03:02:41;;;;;;;;;;;10.50;99.90;;;;;;5039275;28;19931;-76
2023/04/13 03:05:07;;;;;;;;;;;10.40;99.90;;;;;;5031571;28;20232;-76
2023/04/13 03:07:34;;;;;;;;;;;10.40;99.90;;;;;;5022172;28;20663;-76
2023/04/13 03:10:04;;;;;;;;;;;10.40;99.90;;;;;;5038596;28;20061;-77
2023/04/13 03:12:30;;;;;;;;;;;10.40;99.90;;;;;;5036135;28;19916;-77
2023/04/13 03:15:00;;;;;;;;;;;10.40;99.90;;;;;;5039327;28;19905;-76
2023/04/13 03:17:27;;;;;;;;;;;10.40;99.90;;;;;;5019110;28;19909;-76
2023/04/13 03:19:53;;;;;;;;;;;10.30;99.90;;;;;;5033424;28;19956;-77
2023/04/13 03:22:18;;;;;;;;;;;10.30;99.90;;;;;;5021753;28;19936;-76
2023/04/13 03:24:45;;;;;;;;;;;10.30;99.90;;;;;;5041347;28;19996;-77
2023/04/13 03:27:10;;;;;;;;;;;10.30;99.90;;;;;;5019269;28;20381;-76
2023/04/13 03:29:36;;;;;;;;;;;10.30;99.90;;;;;;5017806;28;19964;-77
2023/04/13 03:32:03;;;;;;;;;;;10.30;99.90;;;;;;5045219;28;19913;-76
2023/04/13 03:34:30;;;;;;;;;;;10.30;99.90;;;;;;5041029;28;20409;-76
2023/04/13 03:36:57;;;;;;;;;;;10.30;99.90;;;;;;5035979;28;19912;-76
2023/04/13 03:39:27;;;;;;;;;;;10.30;99.90;;;;;;5024894;28;19920;-76
2023/04/13 03:41:53;;;;;;;;;;;10.30;99.90;;;;;;5034145;28;19940;-76
2023/04/13 03:44:21;;;;;;;;;;;10.20;99.90;;;;;;5018565;28;19954;-77
2023/04/13 03:46:48;;;;;;;;;;;10.20;99.90;;;;;;5037209;28;19913;-76
2023/04/13 03:49:16;;;;;;;;;;;10.20;99.90;;;;;;5042420;28;20013;-76
2023/04/13 03:51:42;;;;;;;;;;;10.20;99.90;;;;;;5023132;28;19924;-77
2023/04/13 03:54:10;;;;;;;;;;;10.20;99.90;;;;;;5037849;28;19944;-76
2023/04/13 03:56:38;;;;;;;;;;;10.20;99.90;;;;;;5023698;28;19905;-76
2023/04/13 03:59:06;;;;;;;;;;;10.20;99.90;;;;;;5039493;28;20346;-77
2023/04/13 04:01:32;;;;;;;;;;;10.20;99.90;;;;;;5018405;28;19935;-76
2023/04/13 04:04:00;;;;;;;;;;;10.20;99.90;;;;;;5034073;28;19908;-76
2023/04/13 04:06:26;;;;;;;;;;;10.20;99.90;;;;;;5043803;28;20575;-76
2023/04/13 04:08:52;;;;;;;;;;;10.10;99.90;;;;;;5038280;28;19913;-76
2023/04/13 04:11:18;;;;;;;;;;;10.20;99.90;;;;;;5029327;28;19909;-76
2023/04/13 04:13:45;;;;;;;;;;;10.20;99.90;;;;;;5035340;28;19912;-75
2023/04/13 04:16:11;;;;;;;;;;;10.20;99.90;;;;;;5037661;28;19927;-76
2023/04/13 04:18:38;;;;;;;;;;;10.20;99.90;;;;;;5029475;28;20346;-76
2023/04/13 04:21:05;;;;;;;;;;;10.20;99.90;;;;;;5024636;28;19904;-75
2023/04/13 04:23:36;;;;;;;;;;;10.20;99.90;;;;;;5020503;28;19921;-76
2023/04/13 04:26:03;;;;;;;;;;;10.20;99.90;;;;;;5032007;28;20266;-75
2023/04/13 04:28:38;;;;;;;;;;;10.20;99.90;;;;;;5020035;28;20535;-75
2023/04/13 04:31:09;;;;;;;;;;;10.20;99.90;;;;;;5013580;28;19979;-77
2023/04/13 04:33:38;;;;;;;;;;;10.20;99.90;;;;;;5018487;28;19911;-76
2023/04/13 04:36:12;;;;;;;;;;;10.20;99.90;;;;;;5017471;28;19912;-75
2023/04/13 04:38:41;;;;;;;;;;;10.20;99.90;;;;;;5035876;28;19901;-76
2023/04/13 04:41:19;;;;;;;;;;;10.20;99.90;;;;;;5034232;28;19996;-76
2023/04/13 04:43:48;;;;;;;;;;;10.20;99.90;;;;;;5016063;28;19913;-75
2023/04/13 04:46:15;;;;;;;;;;;10.20;99.90;;;;;;5012602;28;20031;-75
2023/04/13 04:48:41;;;;;;;;;;;10.20;99.90;;;;;;5033963;28;20535;-75
2023/04/13 04:51:10;;;;;;;;;;;10.20;99.90;;;;;;5017991;28;19966;-76
2023/04/13 04:53:36;;;;;;;;;;;10.20;99.90;;;;;;5017775;28;19916;-75
2023/04/13 04:56:01;;;;;;;;;;;10.20;99.90;;;;;;5040003;28;20011;-74
2023/04/13 04:58:27;;;;;;;;;;;10.20;99.90;;;;;;5029537;28;19916;-74
2023/04/13 05:00:52;;;;;;;;;;;10.20;99.90;;;;;;5033558;28;19912;-73
2023/04/13 05:03:19;;;;;;;;;;;10.30;99.90;;;;;;5036532;28;19979;-73
2023/04/13 05:05:46;;;;;;;;;;;10.20;99.90;;;;;;5030181;28;19909;-74
2023/04/13 05:08:13;;;;;;;;;;;10.20;99.90;;;;;;5036914;28;19996;-74
2023/04/13 05:10:44;;;;;;;;;;;10.20;99.90;;;;;;5013920;28;19904;-74
2023/04/13 05:13:10;;;;;;;;;;;10.30;99.90;;;;;;5025775;28;19988;-74
2023/04/13 05:15:37;;;;;;;;;;;10.20;99.90;;;;;;5030024;28;19991;-74
2023/04/13 05:18:04;;;;;;;;;;;10.20;99.90;;;;;;5015354;28;19913;-73
2023/04/13 05:20:33;;;;;;;;;;;10.20;99.90;;;;;;5017995;28;19912;-85
2023/04/13 05:22:59;;;;;;;;;;;10.20;99.90;;;;;;5016457;28;20255;-82
2023/04/13 05:25:26;;;;;;;;;;;10.30;99.90;;;;;;5012228;28;19920;-82
2023/04/13 05:27:52;;;;;;;;;;;10.30;99.90;;;;;;5036109;28;20345;-81
2023/04/13 05:30:18;;;;;;;;;;;10.40;99.90;;;;;;5035699;28;19959;-76
2023/04/13 05:32:48;;;;;;;;;;;10.40;99.90;;;;;;5019803;28;19908;-76
2023/04/13 05:35:16;;;;;;;;;;;10.40;99.90;;;;;;5045231;28;20011;-76
2023/04/13 05:37:43;;;;;;;;;;;10.40;99.90;;;;;;5035791;28;19908;-75
2023/04/13 05:40:12;;;;;;;;;;;10.40;99.90;;;;;;5022018;28;20250;-75
2023/04/13 05:42:41;;;;;;;;;;;10.40;99.90;;;;;;5038256;28;19995;-75
2023/04/13 05:45:09;;;;;;;;;;;10.30;99.90;;;;;;5018783;28;20564;-75
2023/04/13 05:47:35;;;;;;;;;;;10.30;99.90;;;;;;5018169;28;19993;-76
2023/04/13 05:50:01;;;;;;;;;;;10.30;99.90;;;;;;5037987;28;20026;-76
2023/04/13 05:52:26;;;;;;;;;;;10.30;99.90;;;;;;5036250;28;19932;-76
2023/04/13 05:54:56;;;;;;;;;;;10.20;99.90;;;;;;5043926;28;19917;-76
2023/04/13 05:57:22;;;;;;;;;;;10.20;99.90;;;;;;5020653;28;19917;-75
2023/04/13 05:59:56;;;;;;;;;;;10.20;99.90;;;;;;5040747;28;19905;-76
2023/04/13 06:02:25;;;;;;;;;;;10.20;99.90;;;;;;5046000;28;19919;-75
2023/04/13 06:04:55;;;;;;;;;;;10.20;99.90;;;;;;5019849;28;19926;-76
2023/04/13 06:07:22;;;;;;;;;;;10.10;99.90;;;;;;5021742;28;19915;-75
2023/04/13 06:09:48;;;;;;;;;;;10.10;99.90;;;;;;5022021;28;19905;-75
2023/04/13 06:12:20;;;;;;;;;;;10.10;99.90;;;;;;5021213;28;19905;-75
2023/04/13 06:14:47;;;;;;;;;;;10.10;99.90;;;;;;5038138;28;19928;-75
2023/04/13 06:17:14;;;;;;;;;;;10.20;99.90;;;;;;5039002;28;20127;-75
2023/04/13 06:19:39;;;;;;;;;;;10.20;99.90;;;;;;5044174;28;20325;-75
2023/04/13 06:22:07;;;;;;;;;;;10.30;99.90;;;;;;5044470;28;19959;-75
2023/04/13 06:24:39;;;;;;;;;;;10.30;99.90;;;;;;5041214;28;19916;-75
2023/04/13 06:27:05;;;;;;;;;;;10.30;99.90;;;;;;5021569;28;20269;-76
2023/04/13 06:29:31;;;;;;;;;;;10.40;99.90;;;;;;5018817;28;19913;-75
2023/04/13 06:31:56;;;;;;;;;;;10.40;99.90;;;;;;5019273;28;19908;-76
2023/04/13 06:34:22;;;;;;;;;;;10.40;99.90;;;;;;5034161;28;19989;-76
2023/04/13 06:36:51;;;;;;;;;;;10.50;99.90;;;;;;5036715;28;19905;-76
2023/04/13 06:39:18;;;;;;;;;;;10.40;99.90;;;;;;5032791;28;20020;-76
2023/04/13 06:41:48;;;;;;;;;;;10.50;99.90;;;;;;5045972;28;19959;-76
2023/04/13 06:44:14;;;;;;;;;;;10.50;99.90;;;;;;5023078;28;19919;-76
2023/04/13 06:46:41;;;;;;;;;;;10.40;99.90;;;;;;5036917;28;19905;-76
2023/04/13 06:49:09;;;;;;;;;;;10.40;99.90;;;;;;5039437;28;19915;-75
2023/04/13 06:51:37;;;;;;;;;;;10.50;99.90;;;;;;5039626;28;19987;-76
2023/04/13 06:54:02;;;;;;;;;;;10.40;99.90;;;;;;5024794;28;19974;-75
2023/04/13 06:56:34;;;;;;;;;;;10.40;99.90;;;;;;5040655;28;19905;-76
2023/04/13 06:59:01;;;;;;;;;;;10.50;99.90;;;;;;5033256;28;19963;-76
2023/04/13 07:01:28;;;;;;;;;;;10.50;99.90;;;;;;5038305;28;19905;-76
2023/04/13 07:04:01;;;;;;;;;;;10.50;99.90;;;;;;5036326;28;19913;-75
2023/04/13 07:06:33;;;;;;;;;;;10.60;99.90;;;;;;5040297;28;19909;-75
2023/04/13 07:09:00;;;;;;;;;;;10.50;99.90;;;;;;5033886;28;19905;-76
2023/04/13 07:11:30;;;;;;;;;;;10.50;99.90;;;;;;5041332;28;19905;-75
2023/04/13 07:14:02;;;;;;;;;;;10.50;99.90;;;;;;5032611;28;19909;-76
2023/04/13 07:16:29;;;;;;;;;;;10.60;99.90;;;;;;5021538;28;19905;-75
2023/04/13 07:18:59;;;;;;;;;;;10.60;99.90;;;;;;5036672;28;19915;-76
2023/04/13 07:21:27;;;;;;;;;;;10.70;99.90;;;;;;5038897;28;19970;-76
2023/04/13 07:24:06;;;;;;;;;;;10.80;99.90;;;;;;5018252;28;19947;-76
2023/04/13 07:26:33;;;;;;;;;;;10.90;99.90;;;;;;5043751;28;19913;-76
2023/04/13 07:29:00;;;;;;;;;;;10.90;99.90;;;;;;5034876;28;20386;-76
2023/04/13 07:31:26;;;;;;;;;;;11.10;99.90;;;;;;5018513;28;19919;-76
2023/04/13 07:33:54;;;;;;;;;;;11.10;99.90;;;;;;5034210;28;19912;-77
2023/04/13 07:36:23;;;;;;;;;;;11.30;99.90;;;;;;5041010;28;19905;-76
2023/04/13 07:38:49;;;;;;;;;;;11.40;99.90;;;;;;5036874;28;19905;-76
2023/04/13 07:41:20;;;;;;;;;;;11.40;99.90;;;;;;5019454;28;19996;-76
2023/04/13 07:43:48;;;;;;;;;;;11.40;99.90;;;;;;5019380;28;19913;-76
2023/04/13 07:46:15;;;;;;;;;;;11.40;99.90;;;;;;5022383;28;20328;-76
2023/04/13 07:48:42;;;;;;;;;;;11.30;99.90;;;;;;5022368;28;19905;-75
2023/04/13 07:51:21;;;;;;;;;;;11.30;99.90;;;;;;5017047;28;19904;-76
2023/04/13 07:53:46;;;;;;;;;;;11.30;99.90;;;;;;5017266;28;20009;-76
2023/04/13 07:56:12;;;;;;;;;;;11.20;99.90;;;;;;5040824;28;19967;-76
2023/04/13 07:58:38;;;;;;;;;;;11.30;99.90;;;;;;5020001;28;19916;-76
2023/04/13 08:01:06;;;;;;;;;;;11.40;99.90;;;;;;5024759;28;19905;-76
2023/04/13 08:03:33;;;;;;;;;;;11.50;99.90;;;;;;5033658;28;19917;-76
2023/04/13 08:05:59;;;;;;;;;;;11.60;99.90;;;;;;5032657;28;19904;-75
2023/04/13 08:08:26;;;;;;;;;;;11.60;99.90;;;;;;5019230;28;19905;-76
2023/04/13 08:10:51;;;;;;;;;;;11.60;99.90;;;;;;5037273;28;21336;-75
2023/04/13 08:13:22;;;;;;;;;;;11.60;99.90;;;;;;5034960;28;19905;-75
2023/04/13 08:15:49;;;;;;;;;;;11.40;99.90;;;;;;5037505;28;19952;-75
2023/04/13 08:18:15;;;;;;;;;;;11.20;99.90;;;;;;5036246;28;19924;-75
2023/04/13 08:20:41;;;;;;;;;;;11.10;99.90;;;;;;5019855;28;19908;-76
2023/04/13 08:23:07;;;;;;;;;;;11.10;99.90;;;;;;5035748;28;19920;-75
2023/04/13 08:25:37;;;;;;;;;;;11.10;99.90;;;;;;5015578;28;19920;-75
2023/04/13 08:28:03;;;;;;;;;;;11.10;99.90;;;;;;5034460;28;19950;-76
2023/04/13 08:30:32;;;;;;;;;;;11.10;99.90;;;;;;5037087;28;19950;-77
2023/04/13 08:32:57;;;;;;;;;;;11.30;99.90;;;;;;5031632;28;20003;-76
2023/04/13 08:35:31;;;;;;;;;;;11.50;99.90;;;;;;5027854;28;19999;-75
2023/04/13 08:37:57;;;;;;;;;;;11.50;99.90;;;;;;5033754;28;19909;-76
2023/04/13 08:40:22;;;;;;;;;;;11.60;99.90;;;;;;5032201;28;20274;-75
2023/04/13 08:42:48;;;;;;;;;;;11.80;99.90;;;;;;5038671;28;19913;-75
2023/04/13 08:45:17;;;;;;;;;;;12.30;99.90;;;;;;5032992;28;19908;-76
2023/04/13 08:47:42;;;;;;;;;;;12.90;99.90;;;;;;5032316;28;19908;-76
2023/04/13 08:50:08;;;;;;;;;;;13.40;99.90;;;;;;5019201;28;19931;-76
2023/04/13 08:52:37;;;;;;;;;;;13.90;99.90;;;;;;5037622;28;19909;-76
2023/04/13 08:55:04;;;;;;;;;;;14.20;99.90;;;;;;5035065;28;20368;-76
2023/04/13 08:57:43;;;;;;;;;;;14.40;99.90;;;;;;5033818;28;19915;-75
2023/04/13 09:00:14;;;;;;;;;;;14.40;99.90;;;;;;5017821;28;19909;-75
2023/04/13 09:02:41;;;;;;;;;;;14.40;99.90;;;;;;5036742;28;19908;-76
2023/04/13 09:05:14;;;;;;;;;;;14.10;99.90;;;;;;5032761;28;19995;-76
2023/04/13 09:07:40;;;;;;;;;;;13.90;99.90;;;;;;5019714;28;20030;-75
2023/04/13 09:10:06;;;;;;;;;;;13.60;99.90;;;;;;5042355;28;20003;-75
2023/04/13 09:12:33;;;;;;;;;;;13.70;99.90;;;;;;5015146;28;19913;-75
2023/04/13 09:15:06;;;;;;;;;;;14.00;99.90;;;;;;5021123;28;19967;-75
2023/04/13 09:17:32;;;;;;;;;;;14.20;99.90;;;;;;5036159;28;19913;-75
2023/04/13 09:20:30;;;;;;;;;;;14.40;99.90;;;;;;5035532;28;19905;-76
2023/04/13 09:22:56;;;;;;;;;;;14.80;99.90;;;;;;5001568;28;20004;-74
2023/04/13 09:25:27;;;;;;;;;;;15.50;99.90;;;;;;5039643;28;19999;-76
2023/04/13 09:27:54;;;;;;;;;;;15.80;99.90;;;;;;5021979;28;19912;-76
2023/04/13 09:30:25;;;;;;;;;;;16.00;99.90;;;;;;5039462;28;19912;-76
2023/04/13 09:33:04;;;;;;;;;;;15.70;99.90;;;;;;5018955;28;19913;-76
2023/04/13 09:35:31;;;;;;;;;;;15.30;99.90;;;;;;5036828;28;20703;-75
2023/04/13 09:37:58;;;;;;;;;;;15.10;99.90;;;;;;5040118;28;19980;-75
2023/04/13 09:40:25;;;;;;;;;;;14.80;99.90;;;;;;5037346;28;20079;-75
2023/04/13 09:43:05;;;;;;;;;;;14.30;99.90;;;;;;5037327;28;19994;-75
2023/04/13 09:45:35;;;;;;;;;;;14.10;99.90;;;;;;5041355;28;19919;-76
2023/04/13 09:48:03;;;;;;;;;;;14.00;99.90;;;;;;5035812;28;19916;-75
2023/04/13 09:50:32;;;;;;;;;;;13.90;99.90;;;;;;5036840;28;19927;-75
2023/04/13 09:52:59;;;;;;;;;;;14.10;99.90;;;;;;5035966;28;19904;-76
2023/04/13 09:55:26;;;;;;;;;;;14.20;99.90;;;;;;5018982;28;19964;-75
2023/04/13 09:57:55;;;;;;;;;;;14.00;99.90;;;;;;5025700;28;19919;-75
2023/04/13 10:00:21;;;;;;;;;;;13.90;99.90;;;;;;5021316;28;19920;-76
2023/04/13 10:02:47;;;;;;;;;;;13.80;99.90;;;;;;5031324;28;19913;-76
2023/04/13 10:05:13;;;;;;;;;;;13.90;99.90;;;;;;5030180;28;19913;-75
2023/04/13 10:07:41;;;;;;;;;;;13.90;99.90;;;;;;5035126;28;19901;-76
2023/04/13 10:10:06;;;;;;;;;;;13.60;99.90;;;;;;5030567;28;19910;-75
2023/04/13 10:12:35;;;;;;;;;;;13.50;99.90;;;;;;5030362;28;20595;-76
2023/04/13 10:15:17;;;;;;;;;;;13.60;99.90;;;;;;5015277;28;19912;-75
2023/04/13 10:18:05;;;;;;;;;;;13.80;99.90;;;;;;5028587;28;19975;-76
2023/04/13 10:20:31;;;;;;;;;;;13.70;99.90;;;;;;5035765;28;20575;-76
2023/04/13 10:22:58;;;;;;;;;;;14.20;99.90;;;;;;5039008;28;19912;-74
2023/04/13 10:25:27;;;;;;;;;;;14.30;99.90;;;;;;5016247;28;19915;-75
2023/04/13 10:27:58;;;;;;;;;;;14.40;99.90;;;;;;5037786;28;19920;-75
2023/04/13 10:30:25;;;;;;;;;;;14.40;99.90;;;;;;5020107;28;19928;-75
2023/04/13 10:33:02;;;;;;;;;;;14.40;99.90;;;;;;5031878;28;19913;-75
2023/04/13 10:35:36;;;;;;;;;;;14.30;99.90;;;;;;5037384;28;19911;-75
2023/04/13 10:38:03;;;;;;;;;;;13.60;99.90;;;;;;5034864;28;20408;-75
2023/04/13 10:40:50;;;;;;;;;;;13.30;99.90;;;;;;5033632;28;19905;-75
2023/04/13 10:43:34;;;;;;;;;;;13.10;99.90;;;;;;5032170;28;19995;-79
2023/04/13 10:46:12;;;;;;;;;;;13.10;99.90;;;;;;5018658;28;19908;-78
2023/04/13 10:48:52;;;;;;;;;;;13.60;99.90;;;;;;5013591;28;19912;-76
2023/04/13 10:51:20;;;;;;;;;;;14.20;99.90;;;;;;5037464;28;20417;-75
2023/04/13 10:53:45;;;;;;;;;;;14.20;99.90;;;;;;5039251;28;19967;-75
2023/04/13 10:56:18;;;;;;;;;;;14.40;99.90;;;;;;5038999;28;20346;-76
2023/04/13 10:58:54;;;;;;;;;;;14.20;99.90;;;;;;5017405;28;19957;-75
2023/04/13 11:01:22;;;;;;;;;;;13.90;99.90;;;;;;5019520;28;19916;-77
2023/04/13 11:03:51;;;;;;;;;;;13.80;99.90;;;;;;5042665;28;20385;-75
2023/04/13 11:06:18;;;;;;;;;;;13.50;99.90;;;;;;5031177;28;19912;-75
2023/04/13 11:08:45;;;;;;;;;;;13.50;99.90;;;;;;5021659;28;19950;-76
2023/04/13 11:11:23;;;;;;;;;;;13.50;99.90;;;;;;5019880;28;19905;-75
2023/04/13 11:13:48;;;;;;;;;;;13.60;99.90;;;;;;5032549;28;19909;-76
2023/04/13 11:16:22;;;;;;;;;;;13.90;99.90;;;;;;5035419;28;19905;-75
2023/04/13 11:18:58;;;;;;;;;;;14.00;99.90;;;;;;5034794;28;19958;-76
2023/04/13 11:21:27;;;;;;;;;;;13.80;99.90;;;;;;5017314;28;19912;-76
2023/04/13 11:23:55;;;;;;;;;;;13.70;99.90;;;;;;5018603;28;19960;-76
2023/04/13 11:26:37;;;;;;;;;;;13.60;99.90;;;;;;5030150;28;19905;-76
2023/04/13 11:29:31;;;;;;;;;;;13.50;99.90;;;;;;5040645;28;20121;-76
2023/04/13 11:31:58;;;;;;;;;;;13.60;99.90;;;;;;5031675;28;19909;-77
2023/04/13 11:34:27;;;;;;;;;;;13.50;99.90;;;;;;5035343;28;19912;-75
2023/04/13 11:36:59;;;;;;;;;;;13.30;99.90;;;;;;5017905;28;19912;-75
2023/04/13 11:39:27;;;;;;;;;;;13.20;99.90;;;;;;5038687;28;19931;-75
2023/04/13 11:41:53;;;;;;;;;;;12.90;99.90;;;;;;5035296;28;19912;-74
2023/04/13 11:44:23;;;;;;;;;;;12.60;99.90;;;;;;5043508;28;19915;-74
2023/04/13 11:46:55;;;;;;;;;;;12.60;99.90;;;;;;5017216;28;19944;-74
2023/04/13 11:49:21;;;;;;;;;;;12.50;99.90;;;;;;5020346;28;19971;-75
2023/04/13 11:51:47;;;;;;;;;;;12.50;99.90;;;;;;5019609;28;19909;-75
2023/04/13 11:54:15;;;;;;;;;;;12.50;99.90;;;;;;5036275;28;19917;-75
2023/04/13 11:56:48;;;;;;;;;;;12.60;99.90;;;;;;5033681;28;19904;-76
2023/04/13 11:59:22;;;;;;;;;;;12.60;99.90;;;;;;5031145;28;19905;-75
2023/04/13 12:01:50;;;;;;;;;;;12.60;99.90;;;;;;5034885;28;20346;-75
2023/04/13 12:04:18;;;;;;;;;;;12.50;99.90;;;;;;5034177;28;19921;-75
2023/04/13 12:06:48;;;;;;;;;;;12.50;99.90;;;;;;5018223;28;20254;-75
2023/04/13 12:09:15;;;;;;;;;;;12.50;99.90;;;;;;5035341;28;19905;-75
2023/04/13 12:11:41;;;;;;;;;;;12.50;99.90;;;;;;5016587;28;19909;-75
2023/04/13 12:14:07;;;;;;;;;;;12.40;99.90;;;;;;5035185;28;19908;-74
2023/04/13 12:16:35;;;;;;;;;;;12.20;99.90;;;;;;5019894;28;19911;-76
2023/04/13 12:19:08;;;;;;;;;;;12.10;99.90;;;;;;5013790;28;19913;-75
2023/04/13 12:21:35;;;;;;;;;;;11.90;99.90;;;;;;5017224;28;20515;-75
2023/04/13 12:24:01;;;;;;;;;;;12.00;99.90;;;;;;5035192;28;20125;-75
2023/04/13 12:26:36;;;;;;;;;;;12.20;99.90;;;;;;5033942;28;20354;-75
2023/04/13 12:29:05;;;;;;;;;;;12.40;99.90;;;;;;5036831;28;19935;-75
2023/04/13 12:31:34;;;;;;;;;;;12.30;99.90;;;;;;5016185;28;19927;-75
2023/04/13 12:34:01;;;;;;;;;;;12.50;99.90;;;;;;5036660;28;21365;-74
2023/04/13 12:36:30;;;;;;;;;;;12.70;99.90;;;;;;5035717;28;19909;-75
2023/04/13 12:38:59;;;;;;;;;;;12.70;99.90;;;;;;5033710;28;20354;-76
2023/04/13 12:41:26;;;;;;;;;;;12.70;99.90;;;;;;5034459;28;19915;-75
2023/04/13 12:43:52;;;;;;;;;;;12.80;99.90;;;;;;5039130;28;19917;-75
2023/04/13 12:46:19;;;;;;;;;;;12.50;99.90;;;;;;5035122;28;19915;-75
2023/04/13 12:48:45;;;;;;;;;;;12.30;99.90;;;;;;5017934;28;19966;-75
2023/04/13 12:51:12;;;;;;;;;;;12.40;99.90;;;;;;5034191;28;19909;-75
2023/04/13 12:53:39;;;;;;;;;;;12.30;99.90;;;;;;5036160;28;20007;-75
2023/04/13 12:56:04;;;;;;;;;;;12.20;99.90;;;;;;5031324;28;20748;-75
2023/04/13 12:58:30;;;;;;;;;;;12.10;99.90;;;;;;5018650;28;19952;-75
2023/04/13 13:00:58;;;;;;;;;;;12.00;99.90;;;;;;5017835;28;20611;-74
2023/04/13 13:03:23;;;;;;;;;;;12.00;99.90;;;;;;5033669;28;19908;-75
2023/04/13 13:05:50;;;;;;;;;;;12.40;99.90;;;;;;5034889;28;19928;-75
2023/04/13 13:08:19;;;;;;;;;;;12.90;99.90;;;;;;5041017;28;19909;-76
2023/04/13 13:10:45;;;;;;;;;;;13.30;99.90;;;;;;5042828;28;20593;-76
2023/04/13 13:13:12;;;;;;;;;;;13.60;99.90;;;;;;5044036;28;19906;-75
2023/04/13 13:15:37;;;;;;;;;;;13.40;99.90;;;;;;5020751;28;19927;-76
2023/04/13 13:18:07;;;;;;;;;;;13.30;99.90;;;;;;5016963;28;19904;-76
2023/04/13 13:20:40;;;;;;;;;;;13.10;99.90;;;;;;5013151;28;19913;-77
2023/04/13 13:23:08;;;;;;;;;;;13.00;99.90;;;;;;5038466;28;20587;-74
2023/04/13 13:25:35;;;;;;;;;;;12.90;99.90;;;;;;5029813;28;19905;-74
2023/04/13 13:28:06;;;;;;;;;;;12.70;99.90;;;;;;5035529;28;19983;-75
2023/04/13 13:30:35;;;;;;;;;;;12.40;99.90;;;;;;5032003;28;19958;-74
2023/04/13 13:33:04;;;;;;;;;;;12.20;99.90;;;;;;5030962;28;19913;-74
2023/04/13 13:35:32;;;;;;;;;;;12.00;99.90;;;;;;5031991;28;19916;-74
2023/04/13 13:37:58;;;;;;;;;;;11.80;99.90;;;;;;5033932;28;19966;-74
2023/04/13 13:40:24;;;;;;;;;;;11.80;99.90;;;;;;5038806;28;19911;-74
2023/04/13 13:42:52;;;;;;;;;;;11.50;99.90;;;;;;5016201;28;19913;-75
2023/04/13 13:45:22;;;;;;;;;;;11.30;99.90;;;;;;5013156;28;19909;-74
2023/04/13 13:47:50;;;;;;;;;;;11.10;99.90;;;;;;5015738;28;19909;-75
2023/04/13 13:50:16;;;;;;;;;;;11.20;99.90;;;;;;5009698;28;19909;-75
2023/04/13 13:52:43;;;;;;;;;;;11.50;99.90;;;;;;5040921;28;19966;-74
2023/04/13 13:55:09;;;;;;;;;;;11.60;99.90;;;;;;5033849;28;19913;-74
2023/04/13 13:57:36;;;;;;;;;;;11.80;99.90;;;;;;5026451;28;19905;-74
2023/04/13 14:00:07;;;;;;;;;;;11.90;99.90;;;;;;5038000;28;19919;-74
2023/04/13 14:02:33;;;;;;;;;;;12.10;99.90;;;;;;5019535;28;19913;-74
2023/04/13 14:05:02;;;;;;;;;;;12.00;99.90;;;;;;5018280;28;19940;-75
2023/04/13 14:07:28;;;;;;;;;;;12.00;99.90;;;;;;5033603;28;19909;-75
2023/04/13 14:09:53;;;;;;;;;;;11.80;99.90;;;;;;5039680;28;19920;-74
2023/04/13 14:12:21;;;;;;;;;;;11.80;99.90;;;;;;5041224;28;19904;-75
2023/04/13 14:14:46;;;;;;;;;;;11.40;99.90;;;;;;5019126;28;19954;-74
2023/04/13 14:17:13;;;;;;;;;;;11.50;99.90;;;;;;5038645;28;19909;-80
2023/04/13 14:19:38;;;;;;;;;;;11.50;99.90;;;;;;5038404;28;19902;-81
2023/04/13 14:22:07;;;;;;;;;;;11.80;99.90;;;;;;5021215;28;19919;-75
2023/04/13 14:24:35;;;;;;;;;;;11.80;99.90;;;;;;5022567;28;21358;-75
2023/04/13 14:27:00;;;;;;;;;;;11.90;99.90;;;;;;5043223;28;19961;-76
2023/04/13 14:29:27;;;;;;;;;;;11.80;99.90;;;;;;5038665;28;20643;-75